Time;durP1;ratioP1;P1;durP2;ratioP2;P2;SDS_P1;SDS_P2;PMS_P1;PMS_P2;Temp;Humidity;BMP_temperature;BMP_pressure;BME280_temperature;BME280_humidity;BME280_pressure;Samples;Min_cycle;Max_cycle;Signal;HPM_P1;HPM_P2
2021/08/03 00:00:40;;;;;;;1.67;1.30;;;14.50;90.30;;;;;;4947309;28;20031;-73
2021/08/03 00:03:08;;;;;;;1.92;1.48;;;14.50;90.20;;;;;;4976882;28;20506;-73
2021/08/03 00:05:39;;;;;;;3.33;1.33;;;14.50;90.10;;;;;;4953696;28;20034;-73
2021/08/03 00:08:22;;;;;;;2.03;1.17;;;14.50;89.90;;;;;;4959507;28;20034;-73
2021/08/03 00:10:50;;;;;;;1.40;1.30;;;14.50;89.90;;;;;;4959187;28;20037;-73
2021/08/03 00:13:16;;;;;;;1.33;1.20;;;14.50;89.40;;;;;;4967692;28;20052;-73
2021/08/03 00:15:42;;;;;;;2.88;1.50;;;14.50;89.10;;;;;;4962883;28;20043;-73
2021/08/03 00:18:08;;;;;;;1.58;1.48;;;14.50;88.80;;;;;;4962040;28;20536;-73
2021/08/03 00:20:38;;;;;;;2.95;1.40;;;14.40;89.20;;;;;;4960411;28;20043;-73
2021/08/03 00:23:04;;;;;;;1.67;1.33;;;14.30;89.80;;;;;;4978497;28;20027;-72
2021/08/03 00:25:29;;;;;;;1.23;1.13;;;14.10;90.10;;;;;;4964084;28;20101;-73
2021/08/03 00:27:55;;;;;;;1.80;1.38;;;14.10;90.30;;;;;;4957737;28;20558;-73
2021/08/03 00:30:25;;;;;;;3.10;1.30;;;14.20;90.10;;;;;;4961548;28;20054;-73
2021/08/03 00:32:52;;;;;;;2.10;1.30;;;14.00;90.00;;;;;;4963814;28;20022;-73
2021/08/03 00:35:18;;;;;;;2.15;1.20;;;14.00;90.10;;;;;;4959619;28;20042;-73
2021/08/03 00:37:44;;;;;;;2.15;1.45;;;14.00;90.20;;;;;;4963355;28;20478;-73
2021/08/03 00:40:12;;;;;;;2.17;1.20;;;14.00;90.10;;;;;;4961161;28;20059;-73
2021/08/03 00:42:38;;;;;;;1.02;1.02;;;14.00;90.00;;;;;;4960344;28;20027;-73
2021/08/03 00:45:04;;;;;;;1.55;1.30;;;14.00;90.00;;;;;;4964666;28;20038;-73
2021/08/03 00:47:30;;;;;;;1.98;1.30;;;13.90;90.20;;;;;;4964201;28;20023;-73
2021/08/03 00:49:55;;;;;;;1.75;1.20;;;13.80;90.10;;;;;;4958402;28;20102;-73
2021/08/03 00:52:21;;;;;;;3.88;1.42;;;13.70;90.60;;;;;;4957114;28;20031;-73
2021/08/03 00:54:47;;;;;;;1.25;1.15;;;13.60;90.40;;;;;;4973264;28;20040;-73
2021/08/03 00:57:13;;;;;;;1.60;1.42;;;13.50;90.70;;;;;;4959316;28;20660;-74
2021/08/03 00:59:39;;;;;;;3.53;1.60;;;13.60;90.70;;;;;;4955105;28;20030;-73
2021/08/03 01:02:06;;;;;;;1.60;1.50;;;13.70;90.60;;;;;;4958488;28;20042;-73
2021/08/03 01:04:33;;;;;;;1.30;1.20;;;13.70;90.50;;;;;;4956561;28;20084;-73
2021/08/03 01:07:07;;;;;;;1.40;1.30;;;13.60;90.60;;;;;;4955177;28;20058;-73
2021/08/03 01:10:04;;;;;;;1.48;1.30;;;13.60;89.90;;;;;;4956539;28;20085;-73
2021/08/03 01:12:54;;;;;;;2.92;1.10;;;13.60;89.00;;;;;;4962118;28;20062;-72
2021/08/03 01:15:44;;;;;;;0.80;0.80;;;13.50;88.20;;;;;;4979006;28;20178;-73
2021/08/03 01:18:15;;;;;;;0.90;0.90;;;13.40;88.90;;;;;;4976663;28;20114;-73
2021/08/03 01:21:05;;;;;;;0.98;0.98;;;13.30;88.90;;;;;;4975735;28;20035;-73
2021/08/03 01:23:43;;;;;;;1.27;1.17;;;13.30;89.70;;;;;;4956399;28;20065;-74
2021/08/03 01:26:17;;;;;;;;;;;13.20;90.00;;;;;;4962245;28;20110;-73
2021/08/03 01:28:47;;;;;;;1.55;1.45;;;13.20;90.60;;;;;;4960235;28;19962;-72
2021/08/03 01:31:32;;;;;;;1.45;1.17;;;13.20;90.20;;;;;;4962173;28;20038;-73
2021/08/03 01:34:06;;;;;;;1.73;1.52;;;13.20;90.40;;;;;;4965208;28;20042;-73
2021/08/03 01:36:38;;;;;;;2.22;1.25;;;13.20;90.60;;;;;;4956712;28;20076;-73
2021/08/03 01:39:05;;;;;;;1.77;1.42;;;13.30;90.40;;;;;;4960492;28;20627;-73
2021/08/03 01:41:32;;;;;;;1.30;1.20;;;13.30;90.20;;;;;;4960536;28;20031;-73
2021/08/03 01:44:00;;;;;;;1.73;1.40;;;13.30;90.00;;;;;;4973907;28;20023;-73
2021/08/03 01:46:27;;;;;;;1.70;1.50;;;13.30;90.50;;;;;;4963684;28;20053;-73
2021/08/03 01:48:55;;;;;;;2.08;1.98;;;13.20;90.70;;;;;;4959984;28;20109;-74
2021/08/03 01:51:21;;;;;;;;;;;13.20;90.60;;;;;;4958539;28;20045;-73
2021/08/03 01:53:48;;;;;;;1.65;1.50;;;13.10;90.80;;;;;;4960859;28;19909;-74
2021/08/03 01:56:15;;;;;;;2.33;1.52;;;13.20;90.60;;;;;;4976130;28;20130;-73
2021/08/03 01:58:42;;;;;;;2.33;1.40;;;13.10;91.10;;;;;;4968943;28;20031;-73
2021/08/03 02:01:10;;;;;;;1.42;1.33;;;13.10;90.80;;;;;;4981859;28;20042;-73
2021/08/03 02:03:37;;;;;;;1.38;1.27;;;13.00;90.80;;;;;;4962415;28;20042;-73
2021/08/03 02:06:05;;;;;;;2.08;1.60;;;13.10;90.50;;;;;;4961599;28;20101;-73
2021/08/03 02:08:35;;;;;;;1.90;1.80;;;13.10;90.40;;;;;;4955556;28;21670;-73
2021/08/03 02:11:01;;;;;;;2.70;1.58;;;13.10;90.40;;;;;;4973895;28;20394;-72
2021/08/03 02:13:28;;;;;;;1.42;1.30;;;13.00;90.40;;;;;;4960364;28;20015;-72
2021/08/03 02:15:54;;;;;;;1.38;1.27;;;13.00;90.40;;;;;;4961634;28;20157;-72
2021/08/03 02:18:20;;;;;;;2.08;1.38;;;12.90;90.50;;;;;;4957653;28;20106;-72
2021/08/03 02:20:46;;;;;;;1.73;1.40;;;12.90;90.40;;;;;;4961649;28;20062;-73
2021/08/03 02:23:13;;;;;;;1.55;1.45;;;12.80;90.70;;;;;;4960386;28;20031;-73
2021/08/03 02:25:40;;;;;;;4.50;1.70;;;12.80;90.40;;;;;;4960075;28;20059;-73
2021/08/03 02:28:06;;;;;;;3.00;1.42;;;12.80;90.50;;;;;;4955495;28;20039;-73
2021/08/03 02:30:32;;;;;;;1.70;1.60;;;12.70;90.30;;;;;;4960456;28;20045;-73
2021/08/03 02:33:04;;;;;;;2.08;1.50;;;12.70;90.30;;;;;;4955873;28;20118;-73
2021/08/03 02:35:40;;;;;;;1.58;1.48;;;12.70;90.20;;;;;;4954306;28;20390;-73
2021/08/03 02:38:10;;;;;;;1.60;1.27;;;12.60;90.20;;;;;;4955127;28;20425;-73
2021/08/03 02:40:37;;;;;;;1.42;1.30;;;12.50;90.20;;;;;;4952573;28;20161;-74
2021/08/03 02:43:03;;;;;;;1.73;1.10;;;12.40;90.20;;;;;;4950442;28;20495;-73
2021/08/03 02:45:30;;;;;;;0.90;0.90;;;12.50;89.80;;;;;;4956599;28;20026;-73
2021/08/03 02:48:09;;;;;;;1.33;1.23;;;12.50;89.70;;;;;;4956802;28;20094;-73
2021/08/03 02:50:35;;;;;;;1.30;1.20;;;12.50;89.50;;;;;;4953267;28;20498;-72
2021/08/03 02:53:08;;;;;;;1.10;1.10;;;12.50;89.80;;;;;;4950742;28;20469;-72
2021/08/03 02:55:45;;;;;;;2.25;1.20;;;12.50;90.10;;;;;;4956152;28;20074;-74
2021/08/03 02:58:16;;;;;;;2.85;1.10;;;12.50;89.70;;;;;;4956234;28;20062;-73
2021/08/03 03:00:43;;;;;;;1.40;1.30;;;12.40;89.00;;;;;;4958197;28;20070;-73
2021/08/03 03:03:14;;;;;;;51.65;3.10;;;12.30;90.10;;;;;;4961001;28;20081;-73
2021/08/03 03:05:42;;;;;;;14.32;2.35;;;12.20;90.60;;;;;;4975884;28;20042;-73
2021/08/03 03:08:11;;;;;;;30.08;2.88;;;12.20;90.80;;;;;;4960780;28;20038;-73
2021/08/03 03:10:42;;;;;;;23.27;2.20;;;12.30;90.70;;;;;;4959439;28;20126;-73
2021/08/03 03:13:18;;;;;;;3.47;1.23;;;12.10;90.70;;;;;;4955214;28;20069;-73
2021/08/03 03:15:45;;;;;;;1.15;1.10;;;12.00;91.00;;;;;;4963078;28;20093;-73
2021/08/03 03:18:12;;;;;;;1.20;1.10;;;12.10;90.70;;;;;;4961334;28;20494;-73
2021/08/03 03:20:39;;;;;;;1.20;1.10;;;12.10;90.60;;;;;;4960126;28;20050;-73
2021/08/03 03:23:07;;;;;;;1.17;1.17;;;12.10;90.80;;;;;;4960216;28;20054;-72
2021/08/03 03:25:33;;;;;;;1.10;1.10;;;12.20;90.70;;;;;;4960074;28;20114;-73
2021/08/03 03:28:02;;;;;;;2.05;1.30;;;12.10;90.30;;;;;;4959364;28;20062;-73
2021/08/03 03:30:29;;;;;;;1.40;1.30;;;12.00;90.60;;;;;;4957744;28;20031;-73
2021/08/03 03:33:02;;;;;;;1.48;1.30;;;12.00;90.80;;;;;;4971713;28;20125;-72
2021/08/03 03:35:29;;;;;;;1.25;1.15;;;12.00;90.90;;;;;;4953522;28;20081;-72
2021/08/03 03:37:56;;;;;;;1.48;1.25;;;11.90;90.90;;;;;;4952536;28;20117;-73
2021/08/03 03:40:23;;;;;;;1.35;1.00;;;12.00;90.90;;;;;;4956554;28;20039;-73
2021/08/03 03:42:52;;;;;;;1.20;1.10;;;12.10;90.70;;;;;;4969771;28;20043;-73
2021/08/03 03:45:18;;;;;;;1.85;1.13;;;12.10;90.00;;;;;;4974970;28;20479;-74
2021/08/03 03:47:56;;;;;;;1.30;1.20;;;12.10;90.30;;;;;;4956118;28;20045;-72
2021/08/03 03:50:28;;;;;;;1.75;1.30;;;12.00;90.50;;;;;;4959502;28;20026;-73
2021/08/03 03:53:01;;;;;;;1.27;1.17;;;12.00;90.40;;;;;;4961353;28;20034;-73
2021/08/03 03:55:28;;;;;;;1.00;1.00;;;12.10;90.50;;;;;;4961641;28;20413;-73
2021/08/03 03:57:54;;;;;;;2.75;1.27;;;12.00;90.30;;;;;;4964150;28;20030;-74
2021/08/03 04:00:21;;;;;;;1.20;1.20;;;12.10;90.60;;;;;;4967394;28;20035;-73
2021/08/03 04:02:48;;;;;;;2.15;1.42;;;12.00;90.40;;;;;;4959255;28;20039;-74
2021/08/03 04:05:15;;;;;;;2.10;1.40;;;12.10;90.50;;;;;;4982630;28;20960;-74
2021/08/03 04:07:49;;;;;;;1.77;1.48;;;12.10;90.40;;;;;;4981124;28;20025;-74
2021/08/03 04:10:17;;;;;;;1.50;1.40;;;12.10;90.30;;;;;;4968533;28;20540;-75
2021/08/03 04:12:43;;;;;;;3.35;1.30;;;12.10;90.20;;;;;;4957671;28;20034;-75
2021/08/03 04:15:09;;;;;;;1.38;1.27;;;12.00;90.70;;;;;;4964047;28;20046;-73
2021/08/03 04:17:35;;;;;;;1.67;1.23;;;11.90;90.40;;;;;;4973947;28;20050;-75
2021/08/03 04:20:01;;;;;;;2.92;1.23;;;11.90;90.60;;;;;;4966758;28;20035;-73
2021/08/03 04:22:26;;;;;;;2.25;1.20;;;11.90;90.80;;;;;;4972874;28;20018;-72
2021/08/03 04:24:52;;;;;;;7.03;1.65;;;11.90;91.00;;;;;;4977968;28;21225;-73
2021/08/03 04:27:18;;;;;;;1.67;1.45;;;11.90;90.90;;;;;;4960428;28;20097;-75
2021/08/03 04:29:44;;;;;;;1.40;1.30;;;11.90;91.00;;;;;;4967584;28;20645;-73
2021/08/03 04:32:10;;;;;;;1.50;1.40;;;11.90;91.10;;;;;;4962337;28;20040;-73
2021/08/03 04:34:36;;;;;;;1.60;1.50;;;12.10;90.80;;;;;;4961578;28;20040;-74
2021/08/03 04:37:02;;;;;;;1.52;1.42;;;12.10;90.90;;;;;;4964054;28;20022;-73
2021/08/03 04:39:28;;;;;;;2.50;1.30;;;12.10;90.80;;;;;;4976637;28;20023;-74
2021/08/03 04:41:55;;;;;;;2.10;1.27;;;12.00;90.50;;;;;;4964665;28;20022;-73
2021/08/03 04:44:21;;;;;;;1.25;1.15;;;12.10;90.60;;;;;;4962792;28;20030;-74
2021/08/03 04:46:47;;;;;;;1.75;1.38;;;12.00;90.70;;;;;;4968905;28;20612;-74
2021/08/03 04:49:12;;;;;;;1.38;1.27;;;12.00;91.00;;;;;;4967631;28;20094;-74
2021/08/03 04:51:38;;;;;;;1.42;1.33;;;12.00;91.00;;;;;;4966493;28;20026;-74
2021/08/03 04:54:04;;;;;;;3.05;1.60;;;12.00;91.10;;;;;;4970055;28;20044;-73
2021/08/03 04:56:30;;;;;;;2.10;1.58;;;12.10;91.00;;;;;;4959153;28;20050;-73
2021/08/03 04:58:55;;;;;;;1.98;1.60;;;12.10;91.10;;;;;;4958974;28;20039;-73
2021/08/03 05:01:21;;;;;;;1.70;1.55;;;12.20;91.00;;;;;;4959208;28;20039;-73
2021/08/03 05:03:47;;;;;;;1.67;1.58;;;12.20;91.10;;;;;;4956146;28;20031;-74
2021/08/03 05:06:12;;;;;;;1.75;1.52;;;12.30;91.30;;;;;;4962406;28;20042;-73
2021/08/03 05:08:38;;;;;;;3.00;1.40;;;12.30;91.50;;;;;;4954691;28;20111;-74
2021/08/03 05:11:04;;;;;;;1.38;1.27;;;12.30;91.70;;;;;;4959186;28;20670;-74
2021/08/03 05:13:29;;;;;;;1.50;1.40;;;12.40;91.70;;;;;;4961108;28;20026;-74
2021/08/03 05:15:55;;;;;;;2.75;1.50;;;12.50;91.70;;;;;;4952870;28;21757;-74
2021/08/03 05:18:21;;;;;;;3.63;1.73;;;12.60;91.80;;;;;;4954960;28;20027;-75
2021/08/03 05:20:47;;;;;;;4.93;1.58;;;12.70;91.30;;;;;;4956381;28;20497;-73
2021/08/03 05:23:12;;;;;;;3.08;2.05;;;12.80;91.70;;;;;;4958867;28;20755;-73
2021/08/03 05:25:38;;;;;;;4.15;1.70;;;12.90;91.50;;;;;;4968551;28;20117;-73
2021/08/03 05:28:04;;;;;;;3.25;1.90;;;12.90;91.60;;;;;;4956563;28;20092;-74
2021/08/03 05:30:30;;;;;;;1.73;1.60;;;13.00;91.40;;;;;;4954972;28;20035;-73
2021/08/03 05:32:55;;;;;;;2.35;1.85;;;13.00;91.50;;;;;;4954903;28;20118;-74
2021/08/03 05:35:21;;;;;;;1.85;1.75;;;13.10;91.60;;;;;;4953645;28;20038;-76
2021/08/03 05:37:47;;;;;;;2.33;1.90;;;13.20;91.60;;;;;;4957067;28;20105;-74
2021/08/03 05:40:13;;;;;;;1.83;1.58;;;13.20;91.40;;;;;;4957746;28;20035;-75
2021/08/03 05:42:40;;;;;;;1.95;1.75;;;13.30;91.50;;;;;;4955235;28;20069;-73
2021/08/03 05:45:13;;;;;;;2.00;1.80;;;13.30;91.50;;;;;;4960179;28;21630;-72
2021/08/03 05:47:40;;;;;;;1.90;1.80;;;13.30;91.50;;;;;;4976125;28;20041;-72
2021/08/03 05:50:12;;;;;;;3.83;1.92;;;13.40;91.70;;;;;;4969752;28;20034;-73
2021/08/03 05:52:44;;;;;;;5.15;2.25;;;13.40;91.70;;;;;;4964592;28;20061;-74
2021/08/03 05:55:12;;;;;;;2.92;2.10;;;13.50;91.60;;;;;;4962973;28;20039;-73
2021/08/03 05:57:47;;;;;;;2.65;2.00;;;13.50;91.70;;;;;;4975170;28;20062;-73
2021/08/03 06:00:13;;;;;;;6.05;2.10;;;13.60;91.60;;;;;;4968875;28;20115;-76
2021/08/03 06:02:40;;;;;;;2.10;1.90;;;13.70;91.20;;;;;;4973518;28;20067;-74
2021/08/03 06:05:16;;;;;;;2.75;2.20;;;13.70;91.20;;;;;;4957282;28;20245;-74
2021/08/03 06:07:48;;;;;;;3.00;1.88;;;13.80;91.10;;;;;;4960634;28;20031;-73
2021/08/03 06:10:15;;;;;;;3.35;2.50;;;13.90;90.90;;;;;;4960049;28;20171;-73
2021/08/03 06:12:49;;;;;;;3.47;2.53;;;14.00;90.50;;;;;;4961400;28;20035;-72
2021/08/03 06:15:16;;;;;;;4.15;2.05;;;14.00;90.60;;;;;;4968448;28;20429;-73
2021/08/03 06:17:45;;;;;;;2.42;2.22;;;14.20;90.70;;;;;;4957860;28;20074;-74
2021/08/03 06:20:12;;;;;;;2.33;1.95;;;14.20;90.40;;;;;;4953301;28;20117;-74
2021/08/03 06:22:39;;;;;;;3.55;2.20;;;14.30;91.00;;;;;;4953957;28;20031;-74
2021/08/03 06:25:13;;;;;;;3.20;1.80;;;14.40;90.00;;;;;;4954332;28;20031;-73
2021/08/03 06:27:39;;;;;;;3.05;2.13;;;14.50;90.10;;;;;;4969493;28;20044;-72
2021/08/03 06:30:07;;;;;;;6.30;2.15;;;14.60;90.20;;;;;;4957842;28;20022;-73
2021/08/03 06:32:33;;;;;;;2.35;1.92;;;14.70;89.50;;;;;;4955599;28;20045;-73
2021/08/03 06:34:59;;;;;;;3.63;1.98;;;14.90;88.10;;;;;;4971591;28;20119;-75
2021/08/03 06:37:26;;;;;;;2.78;2.40;;;14.90;88.10;;;;;;4959525;28;20042;-74
2021/08/03 06:39:51;;;;;;;4.13;2.22;;;15.00;88.20;;;;;;4957719;28;20512;-74
2021/08/03 06:42:43;;;;;;;3.50;2.20;;;15.10;88.10;;;;;;4956506;28;20027;-74
2021/08/03 06:45:16;;;;;;;3.08;2.28;;;15.20;87.20;;;;;;4955133;28;20026;-75
2021/08/03 06:48:05;;;;;;;2.67;2.10;;;15.20;87.90;;;;;;4960727;28;20037;-74
2021/08/03 06:50:39;;;;;;;3.22;1.80;;;15.30;88.30;;;;;;4962172;28;20026;-73
2021/08/03 06:53:06;;;;;;;3.72;2.20;;;15.30;87.50;;;;;;4956182;28;20086;-74
2021/08/03 06:55:33;;;;;;;3.60;2.08;;;15.40;87.60;;;;;;4956241;28;20059;-76
2021/08/03 06:58:02;;;;;;;2.80;2.20;;;15.50;86.60;;;;;;4959736;28;20042;-75
2021/08/03 07:00:41;;;;;;;3.45;2.03;;;15.60;86.80;;;;;;4955242;28;20057;-76
2021/08/03 07:03:08;;;;;;;3.45;2.40;;;15.70;86.80;;;;;;4960831;28;20027;-75
2021/08/03 07:05:38;;;;;;;2.95;2.03;;;15.80;85.40;;;;;;4958880;28;20669;-74
2021/08/03 07:08:04;;;;;;;2.85;2.10;;;15.80;85.60;;;;;;4953739;28;20070;-75
2021/08/03 07:10:30;;;;;;;4.93;2.25;;;15.90;84.80;;;;;;4951841;28;20114;-76
2021/08/03 07:12:56;;;;;;;3.72;2.05;;;15.90;84.90;;;;;;4953828;28;20037;-73
2021/08/03 07:15:26;;;;;;;2.88;2.20;;;15.90;83.80;;;;;;4954550;28;20023;-74
2021/08/03 07:17:53;;;;;;;3.97;2.33;;;15.90;84.60;;;;;;4958396;28;20033;-75
2021/08/03 07:20:20;;;;;;;3.38;1.70;;;16.00;85.20;;;;;;4968483;28;20133;-74
2021/08/03 07:22:47;;;;;;;3.30;2.00;;;16.10;85.10;;;;;;4982270;28;20090;-73
2021/08/03 07:25:13;;;;;;;2.42;1.98;;;16.10;83.60;;;;;;4969076;28;20030;-73
2021/08/03 07:27:39;;;;;;;2.97;2.20;;;16.30;83.90;;;;;;4980486;28;20125;-75
2021/08/03 07:30:06;;;;;;;4.60;2.13;;;16.30;83.10;;;;;;4965087;28;20482;-75
2021/08/03 07:32:36;;;;;;;2.85;2.28;;;16.40;84.10;;;;;;4965539;28;20034;-74
2021/08/03 07:35:04;;;;;;;6.32;2.58;;;16.40;84.40;;;;;;4963384;28;20027;-75
2021/08/03 07:37:31;;;;;;;3.90;1.95;;;16.50;84.50;;;;;;4967215;28;20026;-76
2021/08/03 07:39:57;;;;;;;2.40;2.20;;;16.50;84.30;;;;;;4964596;28;20042;-76
2021/08/03 07:42:23;;;;;;;5.50;2.13;;;16.60;85.10;;;;;;4965296;28;20025;-75
2021/08/03 07:44:48;;;;;;;3.78;2.33;;;16.60;84.80;;;;;;4964412;28;20031;-75
2021/08/03 07:47:15;;;;;;;2.00;1.77;;;16.70;85.20;;;;;;4968475;28;20062;-74
2021/08/03 07:49:42;;;;;;;3.40;2.65;;;16.80;85.10;;;;;;4965242;28;20034;-76
2021/08/03 07:52:10;;;;;;;3.25;2.00;;;16.90;85.50;;;;;;4959693;28;20100;-74
2021/08/03 07:54:37;;;;;;;2.20;2.00;;;17.00;84.90;;;;;;4972738;28;20024;-77
2021/08/03 07:57:02;;;;;;;2.67;2.40;;;17.10;84.10;;;;;;4978554;28;20035;-73
2021/08/03 07:59:28;;;;;;;2.10;1.90;;;17.10;83.20;;;;;;4978798;28;20453;-75
2021/08/03 08:01:54;;;;;;;2.67;2.00;;;17.20;83.60;;;;;;4955242;28;20094;-75
2021/08/03 08:04:19;;;;;;;2.63;2.00;;;17.20;82.30;;;;;;4957690;28;20031;-75
2021/08/03 08:06:45;;;;;;;3.42;2.13;;;17.30;82.20;;;;;;4959130;28;20101;-75
2021/08/03 08:09:10;;;;;;;4.53;2.00;;;17.30;82.40;;;;;;4964288;28;20062;-76
2021/08/03 08:11:36;;;;;;;2.72;2.00;;;17.40;81.90;;;;;;4958833;28;20035;-74
2021/08/03 08:14:02;;;;;;;2.00;1.80;;;17.40;82.20;;;;;;4979994;28;20117;-75
2021/08/03 08:16:27;;;;;;;2.95;2.40;;;17.60;82.50;;;;;;4962124;28;20023;-74
2021/08/03 08:18:53;;;;;;;2.35;2.03;;;17.70;84.20;;;;;;4980642;28;20034;-75
2021/08/03 08:21:19;;;;;;;1.75;1.65;;;17.80;82.70;;;;;;4960349;28;20035;-75
2021/08/03 08:23:45;;;;;;;4.68;2.08;;;17.90;83.40;;;;;;4959231;28;20640;-74
2021/08/03 08:26:10;;;;;;;5.47;2.88;;;17.90;84.10;;;;;;4957225;28;20030;-74
2021/08/03 08:28:36;;;;;;;2.58;2.10;;;17.90;82.50;;;;;;4956596;28;20027;-74
2021/08/03 08:31:03;;;;;;;1.95;1.75;;;18.00;82.70;;;;;;4960711;28;20034;-76
2021/08/03 08:33:28;;;;;;;2.22;2.00;;;18.00;82.30;;;;;;4969785;28;20583;-75
2021/08/03 08:35:55;;;;;;;1.92;1.80;;;18.00;82.00;;;;;;4967993;28;20066;-76
2021/08/03 08:38:21;;;;;;;3.30;1.90;;;18.10;81.40;;;;;;4966451;28;20543;-73
2021/08/03 08:40:47;;;;;;;2.83;2.10;;;18.10;81.10;;;;;;4960477;28;20035;-76
2021/08/03 08:43:14;;;;;;;3.97;1.88;;;18.10;81.10;;;;;;4967315;28;20489;-73
2021/08/03 08:45:42;;;;;;;2.40;1.75;;;18.20;81.80;;;;;;4989133;28;20104;-75
2021/08/03 08:48:10;;;;;;;;;;;18.30;80.60;;;;;;4978002;28;20498;-75
2021/08/03 08:50:37;;;;;;;2.30;1.73;;;18.30;80.50;;;;;;4962765;28;19914;-74
2021/08/03 08:53:03;;;;;;;3.42;1.75;;;18.20;80.80;;;;;;4969736;28;20066;-73
2021/08/03 08:55:36;;;;;;;4.97;1.77;;;18.30;81.80;;;;;;4968135;28;20062;-74
2021/08/03 08:58:02;;;;;;;3.55;1.92;;;18.40;80.50;;;;;;4983967;28;20601;-74
2021/08/03 09:00:29;;;;;;;2.47;2.20;;;18.40;80.50;;;;;;4975118;28;20043;-73
2021/08/03 09:03:01;;;;;;;1.85;1.70;;;18.40;82.30;;;;;;4978936;28;20050;-73
2021/08/03 09:05:37;;;;;;;2.25;1.95;;;18.60;82.10;;;;;;4986931;28;20054;-74
2021/08/03 09:08:05;;;;;;;2.13;1.92;;;18.60;80.40;;;;;;4966427;28;20624;-76
2021/08/03 09:10:37;;;;;;;3.22;2.00;;;18.60;80.10;;;;;;4968541;28;20031;-74
2021/08/03 09:13:10;;;;;;;2.25;1.67;;;18.70;79.30;;;;;;4987473;28;20030;-75
2021/08/03 09:15:40;;;;;;;2.20;2.00;;;18.70;80.10;;;;;;4966958;28;20035;-75
2021/08/03 09:18:14;;;;;;;4.07;1.95;;;18.70;80.50;;;;;;4964874;28;20050;-73
2021/08/03 09:20:42;;;;;;;2.08;1.88;;;18.80;81.10;;;;;;4963946;28;20030;-75
2021/08/03 09:23:11;;;;;;;1.77;1.67;;;18.80;79.00;;;;;;4968407;28;20027;-73
2021/08/03 09:25:38;;;;;;;1.70;1.60;;;18.80;78.40;;;;;;4980825;28;20073;-74
2021/08/03 09:28:09;;;;;;;2.00;1.83;;;18.80;77.60;;;;;;4965600;28;20019;-75
2021/08/03 09:30:38;;;;;;;1.98;1.80;;;18.80;77.50;;;;;;4982477;28;20072;-74
2021/08/03 09:33:06;;;;;;;3.42;1.65;;;18.90;76.70;;;;;;4971602;28;20026;-73
2021/08/03 09:35:32;;;;;;;;;;;18.90;77.80;;;;;;4964589;28;20482;-75
2021/08/03 09:37:59;;;;;;;2.22;1.60;;;18.90;76.40;;;;;;4971472;28;20411;-75
2021/08/03 09:40:29;;;;;;;2.20;1.60;;;19.00;77.60;;;;;;4982951;28;20117;-75
2021/08/03 09:43:15;;;;;;;2.08;1.80;;;19.10;77.60;;;;;;4970068;28;20099;-75
2021/08/03 09:45:43;;;;;;;2.03;1.83;;;19.20;75.70;;;;;;4963369;28;20494;-74
2021/08/03 09:48:18;;;;;;;3.22;1.90;;;19.20;75.60;;;;;;4967583;28;20094;-74
2021/08/03 09:51:04;;;;;;;2.13;1.58;;;19.30;77.10;;;;;;4963337;28;20054;-74
2021/08/03 09:53:45;;;;;;;1.70;1.60;;;19.30;74.30;;;;;;4967852;28;20019;-74
2021/08/03 09:56:14;;;;;;;1.88;1.70;;;19.40;75.40;;;;;;4977610;28;20030;-73
2021/08/03 09:58:51;;;;;;;3.28;1.80;;;19.40;75.50;;;;;;4982027;28;20023;-75
2021/08/03 10:01:33;;;;;;;1.85;1.60;;;19.40;76.00;;;;;;4966415;28;20041;-75
2021/08/03 10:04:07;;;;;;;2.25;1.88;;;19.50;75.70;;;;;;4973005;28;20041;-72
2021/08/03 10:06:35;;;;;;;2.20;2.00;;;19.70;76.50;;;;;;4969513;28;20047;-74
2021/08/03 10:09:03;;;;;;;2.60;2.00;;;19.70;73.20;;;;;;4984026;28;20040;-74
2021/08/03 10:11:29;;;;;;;2.33;1.70;;;19.70;74.80;;;;;;4964829;28;20035;-76
2021/08/03 10:13:56;;;;;;;2.08;1.88;;;19.70;73.60;;;;;;4969479;28;20109;-76
2021/08/03 10:16:23;;;;;;;3.08;1.60;;;19.70;73.70;;;;;;4968632;28;20074;-76
2021/08/03 10:19:01;;;;;;;3.20;1.70;;;19.80;73.70;;;;;;4970503;28;20498;-75
2021/08/03 10:21:42;;;;;;;2.10;1.60;;;19.80;73.40;;;;;;4959855;28;20039;-74
2021/08/03 10:24:21;;;;;;;2.55;1.90;;;19.80;71.20;;;;;;4983191;28;20077;-73
2021/08/03 10:27:06;;;;;;;1.90;1.80;;;19.80;71.60;;;;;;4953599;28;20019;-75
2021/08/03 10:29:33;;;;;;;2.88;2.10;;;19.80;73.10;;;;;;4980746;28;20039;-73
2021/08/03 10:32:00;;;;;;;4.70;1.92;;;19.80;73.70;;;;;;4962343;28;20046;-75
2021/08/03 10:34:44;;;;;;;2.03;1.88;;;19.90;73.60;;;;;;4982859;28;20458;-73
2021/08/03 10:37:11;;;;;;;3.33;2.45;;;19.80;75.00;;;;;;4967154;28;20033;-73
2021/08/03 10:39:58;;;;;;;3.35;2.42;;;19.80;73.30;;;;;;4978395;28;20055;-74
2021/08/03 10:42:26;;;;;;;2.35;2.10;;;19.90;74.80;;;;;;4961002;28;20031;-75
2021/08/03 10:44:53;;;;;;;3.00;2.08;;;19.90;74.40;;;;;;4958435;28;20475;-75
2021/08/03 10:47:34;;;;;;;2.30;2.00;;;19.90;73.50;;;;;;4962564;28;20409;-75
2021/08/03 10:50:14;;;;;;;3.42;1.80;;;20.00;74.30;;;;;;4965112;28;20789;-73
2021/08/03 10:52:48;;;;;;;2.13;1.77;;;20.00;73.60;;;;;;4980453;28;20176;-75
2021/08/03 10:55:43;;;;;;;3.35;2.00;;;20.00;71.90;;;;;;4963011;28;20030;-75
2021/08/03 10:58:09;;;;;;;2.28;1.92;;;19.90;69.80;;;;;;4962084;28;20114;-76
2021/08/03 11:01:05;;;;;;;2.70;1.80;;;20.00;69.70;;;;;;4979701;28;20474;-74
2021/08/03 11:03:31;;;;;;;3.10;2.17;;;20.00;70.40;;;;;;4962099;28;20019;-73
2021/08/03 11:06:19;;;;;;;2.28;1.95;;;20.10;71.10;;;;;;4984065;28;20453;-74
2021/08/03 11:08:48;;;;;;;2.38;1.90;;;20.10;70.70;;;;;;4956704;28;20046;-75
2021/08/03 11:11:29;;;;;;;;;;;20.10;71.20;;;;;;4965050;28;20037;-75
2021/08/03 11:14:06;;;;;;;2.67;1.80;;;20.20;70.20;;;;;;4974011;28;19917;-76
2021/08/03 11:16:31;;;;;;;4.22;2.00;;;20.30;71.10;;;;;;4967173;28;20037;-74
2021/08/03 11:19:03;;;;;;;2.10;1.90;;;20.40;69.60;;;;;;4962447;28;20122;-74
2021/08/03 11:21:38;;;;;;;4.18;2.30;;;20.40;69.30;;;;;;4960209;28;20153;-75
2021/08/03 11:24:04;;;;;;;2.50;2.10;;;20.50;70.30;;;;;;4963033;28;20034;-74
2021/08/03 11:26:50;;;;;;;3.90;2.10;;;20.50;69.20;;;;;;4956855;28;20031;-74
2021/08/03 11:29:19;;;;;;;4.30;2.00;;;20.50;67.60;;;;;;4979034;28;20038;-73
2021/08/03 11:31:51;;;;;;;2.72;1.90;;;20.50;67.80;;;;;;4975755;28;20514;-74
2021/08/03 11:34:55;;;;;;;2.63;1.80;;;20.60;67.90;;;;;;4974935;28;20043;-74
2021/08/03 11:37:22;;;;;;;1.80;1.70;;;20.60;67.50;;;;;;4928028;28;20035;-75
2021/08/03 11:39:54;;;;;;;2.80;1.83;;;20.60;65.80;;;;;;4963880;28;20027;-77
2021/08/03 11:42:32;;;;;;;2.05;1.40;;;20.50;67.50;;;;;;4962341;28;20274;-75
2021/08/03 11:45:06;;;;;;;1.98;1.67;;;20.60;63.80;;;;;;4962056;28;20038;-75
2021/08/03 11:47:45;;;;;;;2.38;1.40;;;20.60;65.00;;;;;;4979129;28;20039;-73
2021/08/03 11:50:16;;;;;;;1.98;1.70;;;20.70;64.60;;;;;;4967324;28;20053;-74
2021/08/03 11:52:43;;;;;;;2.13;1.40;;;20.70;66.50;;;;;;4959525;28;20126;-74
2021/08/03 11:55:12;;;;;;;1.70;1.60;;;20.80;64.60;;;;;;4960419;28;20457;-74
2021/08/03 11:57:48;;;;;;;2.78;1.80;;;20.70;64.80;;;;;;4967885;28;20646;-75
2021/08/03 12:00:16;;;;;;;1.85;1.63;;;20.80;64.60;;;;;;4957353;28;20061;-74
2021/08/03 12:02:48;;;;;;;5.22;1.90;;;20.80;66.50;;;;;;4956929;28;20085;-74
2021/08/03 12:05:22;;;;;;;2.38;1.67;;;20.80;67.20;;;;;;4960750;28;20030;-75
2021/08/03 12:08:32;;;;;;;2.20;1.77;;;20.80;65.90;;;;;;4964277;28;20019;-75
2021/08/03 12:10:58;;;;;;;1.88;1.70;;;20.90;66.00;;;;;;4955783;28;20049;-74
2021/08/03 12:13:28;;;;;;;1.85;1.33;;;20.90;65.30;;;;;;4954941;28;20027;-75
2021/08/03 12:15:57;;;;;;;1.80;1.38;;;20.80;61.80;;;;;;4964742;28;20058;-73
2021/08/03 12:18:23;;;;;;;2.30;1.77;;;20.70;61.20;;;;;;4964249;28;20046;-74
2021/08/03 12:20:49;;;;;;;1.67;1.58;;;20.70;63.30;;;;;;4960805;28;20073;-74
2021/08/03 12:23:29;;;;;;;1.65;1.55;;;20.80;64.00;;;;;;4954807;28;20035;-76
2021/08/03 12:26:07;;;;;;;2.20;1.40;;;20.80;63.10;;;;;;4954806;28;20019;-75
2021/08/03 12:28:50;;;;;;;1.58;1.48;;;20.70;63.80;;;;;;4956171;28;20038;-74
2021/08/03 12:31:32;;;;;;;2.03;1.50;;;20.60;64.30;;;;;;4964980;28;20588;-75
2021/08/03 12:34:13;;;;;;;2.70;1.60;;;20.50;63.90;;;;;;4965178;28;20019;-75
2021/08/03 12:36:54;;;;;;;1.88;1.63;;;20.50;68.20;;;;;;4968122;28;20038;-75
2021/08/03 12:39:27;;;;;;;1.70;1.60;;;20.40;66.60;;;;;;4969020;28;20397;-75
2021/08/03 12:42:24;;;;;;;2.40;1.70;;;20.30;67.50;;;;;;4966690;28;20524;-73
2021/08/03 12:44:52;;;;;;;2.72;1.70;;;20.10;66.80;;;;;;4965686;28;20560;-75
2021/08/03 12:47:24;;;;;;;1.40;1.30;;;19.90;68.00;;;;;;4985641;28;20079;-76
2021/08/03 12:50:12;;;;;;;1.85;1.30;;;19.60;67.60;;;;;;4969064;28;20042;-75
2021/08/03 12:52:55;;;;;;;2.03;1.42;;;19.30;67.90;;;;;;4960595;28;20034;-74
2021/08/03 12:55:50;;;;;;;1.17;0.80;;;18.90;69.10;;;;;;4978571;28;20028;-76
2021/08/03 12:58:47;;;;;;;1.48;0.93;;;18.50;71.40;;;;;;4969294;28;20018;-76
2021/08/03 13:01:18;;;;;;;1.58;0.80;;;18.10;73.50;;;;;;4961243;28;20053;-75
2021/08/03 13:03:48;;;;;;;1.55;0.80;;;18.00;72.10;;;;;;4964774;28;20039;-75